Butes — A8UR6 — position and weather

sailwx.info

Track history (hours):
 
Tides and Currents Weather Stations Pressure Air Temp Water Temp Dewpoint Dewpoint Depression Visibility Wind Speed Wind Dir Waves Ship Positions

Butes

Last reported at 2014-Nov-12 02:12 UTC. Time now 2014-Nov-28 01:29 UTC.
Position N 38°37' W 009°23'.
Warning: this ship's position is 15 days out of date.

Length 90 m; draft 3.2 m.

Type: Cargo ship. MMSI: 636091937.

Date/timePositionNaut miles runAvg speedWind from/ knotsBaromVisibWave heightAir tempDewpointWater temp
2014-Nov-12 02:12N 38°37' W 009°23'5 7.2
2014-Nov-12 01:33N 38°40' W 009°18'9 8.6
2014-Nov-12 00:33N 38°41' W 009°08'3 2.6
2014-Nov-11 23:33N 38°40' W 009°04'0 0.0
2014-Nov-11 22:33N 38°40' W 009°04'0 0.0
2014-Nov-11 21:33N 38°40' W 009°04'0 0.0
2014-Nov-11 20:33N 38°40' W 009°04'0 0.0
2014-Nov-11 19:30N 38°40' W 009°04'0 0.0
2014-Nov-11 18:33N 38°40' W 009°04'0 0.0
2014-Nov-11 17:33N 38°40' W 009°04'0 0.0
2014-Nov-11 16:33N 38°40' W 009°04'0 0.0
2014-Nov-11 15:30N 38°40' W 009°04'0 0.0
2014-Nov-11 14:33N 38°40' W 009°04'0 0.0
2014-Nov-11 13:33N 38°40' W 009°04'0 0.0
2014-Nov-11 12:33N 38°40' W 009°04'0 0.0
2014-Nov-11 11:33N 38°40' W 009°04'0 0.0
2014-Nov-11 10:33N 38°40' W 009°04'0 0.0
2014-Nov-11 09:33N 38°40' W 009°04'0 0.0
2014-Nov-11 08:33N 38°40' W 009°04'0 0.0
2014-Nov-11 07:33N 38°40' W 009°04'0 0.0
2014-Nov-11 06:33N 38°40' W 009°04'0 0.0
2014-Nov-11 05:33N 38°40' W 009°04'0 0.0
2014-Nov-11 04:33N 38°40' W 009°04'0 0.0
2014-Nov-11 03:33N 38°40' W 009°04'0 0.0
2014-Nov-11 02:33N 38°40' W 009°04'0 0.3
2014-Nov-11 01:33N 38°40' W 009°05'7 7.1
2014-Nov-11 00:33N 38°41' W 009°14'  
2014-Nov-05 12:32N 52°18' W 005°50'120 9.0
2014-Nov-04 23:11N 54°16' W 005°20'6 8.9
2014-Nov-04 22:33N 54°22' W 005°18'9 8.5
2014-Nov-04 21:33N 54°30' W 005°21'9 9.2
2014-Nov-04 20:33N 54°39' W 005°26'8 7.6
2014-Nov-04 19:33N 54°42' W 005°38'8 8.4
2014-Nov-04 18:33N 54°39' W 005°51'3 0.2
2014-Nov-04 04:16N 54°37' W 005°53'  
Track history (hours):
 
Tides and Currents Weather Stations Pressure Air Temp Water Temp Dewpoint Dewpoint Depression Visibility Wind Speed Wind Dir Waves Ship Positions

Butes

Last reported at 2014-Nov-12 02:12 UTC. Time now 2014-Nov-28 01:29 UTC.
Position N 38°37' W 009°23'.
Warning: this ship's position is 15 days out of date.

Length 90 m; draft 3.2 m.

Type: Cargo ship. MMSI: 636091937.

Date/timePositionNaut miles runAvg speedWind from/ knotsBaromVisibWave heightAir tempDewpointWater temp
2014-Nov-12 02:12N 38°37' W 009°23'5 7.2
2014-Nov-12 01:33N 38°40' W 009°18'9 8.6
2014-Nov-12 00:33N 38°41' W 009°08'3 2.6
2014-Nov-11 23:33N 38°40' W 009°04'0 0.0
2014-Nov-11 22:33N 38°40' W 009°04'0 0.0
2014-Nov-11 21:33N 38°40' W 009°04'0 0.0
2014-Nov-11 20:33N 38°40' W 009°04'0 0.0
2014-Nov-11 19:30N 38°40' W 009°04'0 0.0
2014-Nov-11 18:33N 38°40' W 009°04'0 0.0
2014-Nov-11 17:33N 38°40' W 009°04'0 0.0
2014-Nov-11 16:33N 38°40' W 009°04'0 0.0
2014-Nov-11 15:30N 38°40' W 009°04'0 0.0
2014-Nov-11 14:33N 38°40' W 009°04'0 0.0
2014-Nov-11 13:33N 38°40' W 009°04'0 0.0
2014-Nov-11 12:33N 38°40' W 009°04'0 0.0
2014-Nov-11 11:33N 38°40' W 009°04'0 0.0
2014-Nov-11 10:33N 38°40' W 009°04'0 0.0
2014-Nov-11 09:33N 38°40' W 009°04'0 0.0
2014-Nov-11 08:33N 38°40' W 009°04'0 0.0
2014-Nov-11 07:33N 38°40' W 009°04'0 0.0
2014-Nov-11 06:33N 38°40' W 009°04'0 0.0
2014-Nov-11 05:33N 38°40' W 009°04'0 0.0
2014-Nov-11 04:33N 38°40' W 009°04'0 0.0
2014-Nov-11 03:33N 38°40' W 009°04'0 0.0
2014-Nov-11 02:33N 38°40' W 009°04'0 0.3
2014-Nov-11 01:33N 38°40' W 009°05'7 7.1
2014-Nov-11 00:33N 38°41' W 009°14'  
2014-Nov-05 12:32N 52°18' W 005°50'120 9.0
2014-Nov-04 23:11N 54°16' W 005°20'6 8.9
2014-Nov-04 22:33N 54°22' W 005°18'9 8.5
2014-Nov-04 21:33N 54°30' W 005°21'9 9.2
2014-Nov-04 20:33N 54°39' W 005°26'8 7.6
2014-Nov-04 19:33N 54°42' W 005°38'8 8.4
2014-Nov-04 18:33N 54°39' W 005°51'3 0.2
2014-Nov-04 04:16N 54°37' W 005°53'  

Dump ship's entire track history